DW9665 Sarajevo BA current weather conditions

sailwx.info

Wind from 270 at 2 knots gusting 3

Air temperature 23.9° C
Dewpoint 11.2° C

Last reported at 2016-Jun-26 14:47 UTC.
Time now 2016-Jun-26 15:39 UTC

Location: N 43°50' E 018°21'.
View on Google Maps.

See reports from other nearby stations

  
Tides and Currents Weather Stations Pressure Air Temp Water Temp Dewpoint Dewpoint Depression Visibility Wind Speed Wind Dir Waves Ship Positions
date/time (UTC)wind fromknots sea level pressurealtimeterstation pressurevisibilityair tempwater tempwave heightnotes
2016-Jun-26 14:47 270 2 gusting 3 23.9
2016-Jun-26 14:32 180 24.4
2016-Jun-26 13:32 090 2 gusting 5 26.7
2016-Jun-26 13:17 135 1 gusting 4 26.7
2016-Jun-26 02:21 270 0 gusting 1 19.4
2016-Jun-26 00:50 068 0 gusting 1 20.6
2016-Jun-26 00:35 135 20.6
2016-Jun-26 00:25 270 20.6
2016-Jun-26 00:05 180 21.1
2016-Jun-25 23:35 270 21.1
2016-Jun-25 23:05 270 2 gusting 3 21.7
2016-Jun-25 22:50 180 21.7
2016-Jun-25 22:06 158 22.8
2016-Jun-25 21:50 135 22.8
2016-Jun-25 21:35 158 22.8
2016-Jun-25 21:21 112 2 gusting 5 22.8
2016-Jun-25 21:05 180 0 gusting 1 23.3
2016-Jun-25 20:47 270 1 gusting 4 23.3
2016-Jun-25 20:32 338 23.9
2016-Jun-25 20:17 135 24.4
2016-Jun-25 20:02 158 24.4
2016-Jun-25 19:47 158 25.0
2016-Jun-25 19:32 292 1 gusting 2 25.0
2016-Jun-25 19:17 068 25.6
2016-Jun-25 19:02 292 3 gusting 4 25.6
2016-Jun-25 18:47 270 25.6
2016-Jun-25 18:32 292 2 gusting 5 25.6
2016-Jun-25 18:17 270 2 gusting 4 26.1
2016-Jun-25 18:02 315 3 gusting 4 26.7
2016-Jun-25 17:47 090 2 gusting 4 26.7
2016-Jun-25 17:32 135 2 gusting 4 27.2
2016-Jun-25 17:17 180 3 gusting 4 27.8
2016-Jun-25 17:02 158 28.3
2016-Jun-25 16:47 338 28.9
2016-Jun-25 16:32 270 2 gusting 2 29.4
2016-Jun-25 16:17 292 29.4
2016-Jun-25 16:02 158 2 gusting 1 29.4
2016-Jun-25 15:47 135 30.0
2016-Jun-25 15:32 045 0 gusting 3 29.4
2016-Jun-25 15:17 135 28.9
2016-Jun-25 15:02 338 0 gusting 1 28.9
2016-Jun-25 14:47 292 1 gusting 1 28.9
2016-Jun-25 14:32 135 28.3
2016-Jun-25 14:17 158 1 gusting 4 28.3
2016-Jun-25 14:02 135 2 gusting 3 28.3
2016-Jun-25 13:47 180 1 gusting 4 28.3
2016-Jun-25 13:32 022 0 gusting 1 28.3
2016-Jun-25 13:17 022 0 gusting 1 27.8
2016-Jun-25 13:02 158 0 gusting 3 27.2
2016-Jun-25 12:47 158 0 gusting 1 27.2
2016-Jun-25 12:32 158 26.1
2016-Jun-25 12:17 045 2 gusting 3 25.6
2016-Jun-25 12:02 112 2 gusting 3 26.1
2016-Jun-25 11:47 158 2 gusting 3 26.1
2016-Jun-25 11:32 158 2 gusting 5 26.1
2016-Jun-25 11:17 068 2 gusting 8 26.7
2016-Jun-25 11:02 158 6 gusting 7 27.8
2016-Jun-25 10:47 158 1 30.0
2016-Jun-25 10:32 292 0 gusting 0 30.0
2016-Jun-25 10:17 270 0 gusting 3 30.0
2016-Jun-25 10:02 292 1 gusting 3 30.6
2016-Jun-25 09:47 180 1 gusting 3 30.6
2016-Jun-25 09:32 112 30.6
2016-Jun-25 09:17 292 2 gusting 5 29.4
2016-Jun-25 09:02 292 0 gusting 4 28.9
2016-Jun-25 08:47 270 1 gusting 4 28.9
2016-Jun-25 08:32 338 3 gusting 3 29.4
2016-Jun-25 08:17 315 0 gusting 1 29.4
2016-Jun-25 08:02 068 27.8
2016-Jun-25 07:47 158 27.8
2016-Jun-25 07:32 158 26.7
2016-Jun-25 07:17 158 25.6
2016-Jun-25 07:02 158 23.9
2016-Jun-25 06:47 158 23.3
2016-Jun-25 06:32 158 0 gusting 2 23.9
2016-Jun-25 06:17 112 23.9
2016-Jun-25 06:02 158 1 gusting 3 23.3
2016-Jun-25 05:47 270 22.8
2016-Jun-25 05:32 270 0 gusting 1 23.3
2016-Jun-25 05:17 270 22.8
2016-Jun-25 05:02 270 22.8
2016-Jun-25 04:47 270 1 gusting 3 22.2
2016-Jun-25 04:32 270 22.2
2016-Jun-25 04:17 270 0 gusting 1 21.1
2016-Jun-25 04:02 21.1
2016-Jun-25 03:47 20.6
2016-Jun-25 03:32 21.1
2016-Jun-25 03:17 270 21.1
2016-Jun-25 03:02 270 21.1
2016-Jun-25 02:47 270 21.1
2016-Jun-25 02:32 270 0 gusting 2 21.1
2016-Jun-25 02:17 270 0 gusting 5 21.7
2016-Jun-25 02:02 292 1 gusting 3 22.2
2016-Jun-25 01:47 292 22.8
2016-Jun-25 01:32 090 0 22.8
2016-Jun-25 01:17 180 22.8
2016-Jun-25 01:02 180 2 gusting 2 23.9
2016-Jun-25 00:47 158 23.9
2016-Jun-25 00:32 23.9
2016-Jun-25 00:17 068 0 gusting 2 23.9
2016-Jun-25 00:02 158 1 gusting 3 24.4
2016-Jun-24 23:47 090 2 gusting 4 24.4
2016-Jun-24 23:32 090 0 gusting 5 25.0
2016-Jun-24 23:17 090 4 gusting 5 25.0
2016-Jun-24 23:02 090 2 gusting 2 25.0
2016-Jun-24 22:47 270 25.0
2016-Jun-24 21:32 135 27.2
2016-Jun-24 21:17 045 1 gusting 7 27.2
2016-Jun-24 21:02 112 1 gusting 4 27.2
2016-Jun-24 20:47 158 27.2
2016-Jun-24 20:32 180 27.2
2016-Jun-24 20:17 135 1 gusting 5 27.8
2016-Jun-24 20:02 270 5 gusting 5 27.8
2016-Jun-24 19:47 045 1 gusting 3 28.3
2016-Jun-24 19:32 090 2 gusting 4 28.3
2016-Jun-24 19:17 112 3 gusting 4 28.9
2016-Jun-24 19:02 135 28.9
2016-Jun-24 18:47 180 28.9
2016-Jun-24 18:32 090 2 gusting 3 29.4
2016-Jun-24 18:17 180 1 gusting 4 29.4
2016-Jun-24 18:02 180 2 gusting 4 30.0
2016-Jun-24 17:47 090 3 gusting 5 30.0
2016-Jun-24 17:32 090 3 gusting 3 30.6
2016-Jun-24 17:17 112 4 gusting 6 30.6
2016-Jun-24 17:02 135 2 gusting 4 31.1
2016-Jun-24 16:47 158 3 gusting 5 31.1
2016-Jun-24 16:32 090 8 gusting 5 31.7
2016-Jun-24 16:17 135 4 gusting 10 31.7
2016-Jun-24 16:02 135 5 gusting 6 32.2
2016-Jun-24 15:47 068 2 gusting 5 32.8
2016-Jun-24 15:32 32.8
2016-Jun-24 15:17 022 3 gusting 9 32.2
2016-Jun-24 15:02 090 6 gusting 7 32.8